sensor_id;sensor_type;location;lat;lon;timestamp;P1;durP1;ratioP1;P2;durP2;ratioP2
14858;SDS011;7521;51.700;6.874;2023-02-13T00:01:54;41.10;;;27.27;;
14858;SDS011;7521;51.700;6.874;2023-02-13T00:04:59;37.03;;;26.57;;
14858;SDS011;7521;51.700;6.874;2023-02-13T00:08:04;38.63;;;25.13;;
14858;SDS011;7521;51.700;6.874;2023-02-13T00:11:10;37.22;;;25.67;;
14858;SDS011;7521;51.700;6.874;2023-02-13T00:14:15;38.88;;;25.05;;
14858;SDS011;7521;51.700;6.874;2023-02-13T00:17:20;33.83;;;23.57;;
14858;SDS011;7521;51.700;6.874;2023-02-13T00:20:25;35.47;;;24.67;;
14858;SDS011;7521;51.700;6.874;2023-02-13T00:23:31;34.60;;;24.33;;
14858;SDS011;7521;51.700;6.874;2023-02-13T00:26:36;31.00;;;23.37;;
14858;SDS011;7521;51.700;6.874;2023-02-13T00:29:43;33.87;;;24.10;;
14858;SDS011;7521;51.700;6.874;2023-02-13T00:32:49;34.43;;;24.80;;
14858;SDS011;7521;51.700;6.874;2023-02-13T00:36:10;30.15;;;22.23;;
14858;SDS011;7521;51.700;6.874;2023-02-13T00:39:15;29.13;;;22.40;;
14858;SDS011;7521;51.700;6.874;2023-02-13T00:42:21;32.75;;;21.55;;
14858;SDS011;7521;51.700;6.874;2023-02-13T00:45:30;33.40;;;23.07;;
14858;SDS011;7521;51.700;6.874;2023-02-13T00:48:35;32.15;;;23.48;;
14858;SDS011;7521;51.700;6.874;2023-02-13T00:51:41;32.43;;;22.70;;
14858;SDS011;7521;51.700;6.874;2023-02-13T00:54:46;32.60;;;22.63;;
14858;SDS011;7521;51.700;6.874;2023-02-13T00:57:51;37.63;;;23.67;;
14858;SDS011;7521;51.700;6.874;2023-02-13T01:00:59;30.20;;;22.52;;
14858;SDS011;7521;51.700;6.874;2023-02-13T01:04:04;31.87;;;23.50;;
14858;SDS011;7521;51.700;6.874;2023-02-13T01:07:09;33.97;;;23.25;;
14858;SDS011;7521;51.700;6.874;2023-02-13T01:10:15;32.65;;;23.40;;
14858;SDS011;7521;51.700;6.874;2023-02-13T01:13:20;30.53;;;21.83;;
14858;SDS011;7521;51.700;6.874;2023-02-13T01:16:25;30.42;;;21.67;;
14858;SDS011;7521;51.700;6.874;2023-02-13T01:19:31;31.27;;;23.07;;
14858;SDS011;7521;51.700;6.874;2023-02-13T01:22:36;34.17;;;22.07;;
14858;SDS011;7521;51.700;6.874;2023-02-13T01:25:41;29.90;;;21.60;;
14858;SDS011;7521;51.700;6.874;2023-02-13T01:28:46;34.23;;;23.27;;
14858;SDS011;7521;51.700;6.874;2023-02-13T01:31:52;32.27;;;23.57;;
14858;SDS011;7521;51.700;6.874;2023-02-13T01:34:57;33.42;;;23.73;;
14858;SDS011;7521;51.700;6.874;2023-02-13T01:38:02;30.77;;;21.33;;
14858;SDS011;7521;51.700;6.874;2023-02-13T01:41:07;30.75;;;21.58;;
14858;SDS011;7521;51.700;6.874;2023-02-13T01:47:38;31.13;;;21.83;;
14858;SDS011;7521;51.700;6.874;2023-02-13T01:53:55;28.87;;;21.40;;
14858;SDS011;7521;51.700;6.874;2023-02-13T01:57:04;32.00;;;22.83;;
14858;SDS011;7521;51.700;6.874;2023-02-13T02:00:12;31.47;;;23.40;;
14858;SDS011;7521;51.700;6.874;2023-02-13T02:04:04;34.77;;;22.00;;
14858;SDS011;7521;51.700;6.874;2023-02-13T02:06:57;30.03;;;22.80;;
14858;SDS011;7521;51.700;6.874;2023-02-13T02:10:06;31.50;;;21.80;;
14858;SDS011;7521;51.700;6.874;2023-02-13T02:13:14;33.67;;;22.77;;
14858;SDS011;7521;51.700;6.874;2023-02-13T02:16:22;34.83;;;24.17;;
14858;SDS011;7521;51.700;6.874;2023-02-13T02:19:40;30.53;;;21.57;;
14858;SDS011;7521;51.700;6.874;2023-02-13T02:39:18;35.90;;;24.97;;
14858;SDS011;7521;51.700;6.874;2023-02-13T02:49:16;31.00;;;22.63;;
14858;SDS011;7521;51.700;6.874;2023-02-13T02:52:46;28.67;;;21.57;;
14858;SDS011;7521;51.700;6.874;2023-02-13T02:56:01;30.77;;;21.70;;
14858;SDS011;7521;51.700;6.874;2023-02-13T02:59:10;32.00;;;22.17;;
14858;SDS011;7521;51.700;6.874;2023-02-13T03:02:36;30.77;;;22.07;;
14858;SDS011;7521;51.700;6.874;2023-02-13T03:06:00;30.43;;;22.20;;
14858;SDS011;7521;51.700;6.874;2023-02-13T03:09:18;33.40;;;24.47;;
14858;SDS011;7521;51.700;6.874;2023-02-13T03:12:50;33.53;;;23.43;;
14858;SDS011;7521;51.700;6.874;2023-02-13T03:16:16;29.33;;;22.50;;
14858;SDS011;7521;51.700;6.874;2023-02-13T03:23:07;33.17;;;22.30;;
14858;SDS011;7521;51.700;6.874;2023-02-13T03:29:52;33.87;;;23.10;;
14858;SDS011;7521;51.700;6.874;2023-02-13T03:33:21;35.87;;;24.30;;
14858;SDS011;7521;51.700;6.874;2023-02-13T03:36:46;33.10;;;23.00;;
14858;SDS011;7521;51.700;6.874;2023-02-13T03:40:22;31.87;;;22.60;;
14858;SDS011;7521;51.700;6.874;2023-02-13T03:43:28;32.30;;;22.50;;
14858;SDS011;7521;51.700;6.874;2023-02-13T03:46:37;30.97;;;22.47;;
14858;SDS011;7521;51.700;6.874;2023-02-13T03:49:45;30.23;;;22.60;;
14858;SDS011;7521;51.700;6.874;2023-02-13T03:53:10;28.20;;;21.20;;
14858;SDS011;7521;51.700;6.874;2023-02-13T03:56:16;31.33;;;21.57;;
14858;SDS011;7521;51.700;6.874;2023-02-13T03:59:41;29.93;;;22.87;;
14858;SDS011;7521;51.700;6.874;2023-02-13T04:03:07;32.40;;;22.35;;
14858;SDS011;7521;51.700;6.874;2023-02-13T04:06:15;30.60;;;21.83;;
14858;SDS011;7521;51.700;6.874;2023-02-13T04:09:21;30.07;;;21.80;;
14858;SDS011;7521;51.700;6.874;2023-02-13T04:12:31;28.33;;;20.53;;
14858;SDS011;7521;51.700;6.874;2023-02-13T04:15:44;25.50;;;19.40;;
14858;SDS011;7521;51.700;6.874;2023-02-13T04:18:49;25.50;;;19.90;;
14858;SDS011;7521;51.700;6.874;2023-02-13T04:21:56;23.23;;;18.83;;
14858;SDS011;7521;51.700;6.874;2023-02-13T04:25:02;22.23;;;17.20;;
14858;SDS011;7521;51.700;6.874;2023-02-13T04:28:07;21.90;;;16.35;;
14858;SDS011;7521;51.700;6.874;2023-02-13T04:31:13;18.23;;;13.82;;
14858;SDS011;7521;51.700;6.874;2023-02-13T04:34:18;23.20;;;14.63;;
14858;SDS011;7521;51.700;6.874;2023-02-13T04:37:23;18.37;;;14.73;;
14858;SDS011;7521;51.700;6.874;2023-02-13T04:40:28;20.35;;;15.63;;
14858;SDS011;7521;51.700;6.874;2023-02-13T04:43:34;22.03;;;16.37;;
14858;SDS011;7521;51.700;6.874;2023-02-13T04:46:39;17.60;;;14.55;;
14858;SDS011;7521;51.700;6.874;2023-02-13T04:49:44;21.47;;;15.73;;
14858;SDS011;7521;51.700;6.874;2023-02-13T04:52:53;19.60;;;15.75;;
14858;SDS011;7521;51.700;6.874;2023-02-13T04:55:59;20.57;;;15.30;;
14858;SDS011;7521;51.700;6.874;2023-02-13T04:59:04;17.87;;;14.10;;
14858;SDS011;7521;51.700;6.874;2023-02-13T05:02:09;16.83;;;12.73;;
14858;SDS011;7521;51.700;6.874;2023-02-13T05:05:15;15.88;;;12.57;;
14858;SDS011;7521;51.700;6.874;2023-02-13T05:08:20;16.47;;;12.13;;
14858;SDS011;7521;51.700;6.874;2023-02-13T05:11:25;14.60;;;12.05;;
14858;SDS011;7521;51.700;6.874;2023-02-13T05:14:30;14.75;;;11.88;;
14858;SDS011;7521;51.700;6.874;2023-02-13T05:17:35;16.42;;;12.95;;
14858;SDS011;7521;51.700;6.874;2023-02-13T05:20:41;17.40;;;13.88;;
14858;SDS011;7521;51.700;6.874;2023-02-13T05:23:46;20.20;;;15.53;;
14858;SDS011;7521;51.700;6.874;2023-02-13T05:26:51;21.53;;;16.23;;
14858;SDS011;7521;51.700;6.874;2023-02-13T05:29:56;19.53;;;15.23;;
14858;SDS011;7521;51.700;6.874;2023-02-13T05:33:01;18.52;;;14.60;;
14858;SDS011;7521;51.700;6.874;2023-02-13T05:36:06;17.63;;;13.00;;
14858;SDS011;7521;51.700;6.874;2023-02-13T05:39:12;16.60;;;12.82;;
14858;SDS011;7521;51.700;6.874;2023-02-13T05:42:17;16.97;;;12.17;;
14858;SDS011;7521;51.700;6.874;2023-02-13T05:45:22;15.63;;;11.55;;
14858;SDS011;7521;51.700;6.874;2023-02-13T05:48:27;13.30;;;10.43;;
14858;SDS011;7521;51.700;6.874;2023-02-13T05:51:33;13.82;;;10.30;;
14858;SDS011;7521;51.700;6.874;2023-02-13T05:54:38;13.70;;;10.23;;
14858;SDS011;7521;51.700;6.874;2023-02-13T05:57:44;13.07;;;10.13;;
14858;SDS011;7521;51.700;6.874;2023-02-13T06:00:49;12.95;;;9.77;;
14858;SDS011;7521;51.700;6.874;2023-02-13T06:03:54;12.10;;;10.10;;
14858;SDS011;7521;51.700;6.874;2023-02-13T06:07:02;12.15;;;9.40;;
14858;SDS011;7521;51.700;6.874;2023-02-13T06:10:07;12.07;;;9.83;;
14858;SDS011;7521;51.700;6.874;2023-02-13T06:13:12;11.63;;;9.53;;
14858;SDS011;7521;51.700;6.874;2023-02-13T06:16:18;13.57;;;9.73;;
14858;SDS011;7521;51.700;6.874;2023-02-13T06:19:23;12.73;;;9.77;;
14858;SDS011;7521;51.700;6.874;2023-02-13T06:22:28;11.47;;;9.03;;
14858;SDS011;7521;51.700;6.874;2023-02-13T06:25:34;10.80;;;9.07;;
14858;SDS011;7521;51.700;6.874;2023-02-13T06:28:39;13.27;;;9.80;;
14858;SDS011;7521;51.700;6.874;2023-02-13T06:31:45;16.07;;;10.10;;
14858;SDS011;7521;51.700;6.874;2023-02-13T06:34:50;13.45;;;10.48;;
14858;SDS011;7521;51.700;6.874;2023-02-13T06:37:55;13.90;;;9.80;;
14858;SDS011;7521;51.700;6.874;2023-02-13T06:41:00;13.60;;;10.00;;
14858;SDS011;7521;51.700;6.874;2023-02-13T06:44:06;13.77;;;9.67;;
14858;SDS011;7521;51.700;6.874;2023-02-13T06:47:11;12.00;;;9.70;;
14858;SDS011;7521;51.700;6.874;2023-02-13T06:50:17;12.57;;;10.23;;
14858;SDS011;7521;51.700;6.874;2023-02-13T06:53:22;13.83;;;10.53;;
14858;SDS011;7521;51.700;6.874;2023-02-13T06:56:29;14.27;;;11.57;;
14858;SDS011;7521;51.700;6.874;2023-02-13T06:59:37;18.30;;;13.45;;
14858;SDS011;7521;51.700;6.874;2023-02-13T07:02:43;17.47;;;13.50;;
14858;SDS011;7521;51.700;6.874;2023-02-13T07:05:51;21.00;;;13.87;;
14858;SDS011;7521;51.700;6.874;2023-02-13T07:08:57;20.73;;;14.37;;
14858;SDS011;7521;51.700;6.874;2023-02-13T07:12:02;21.50;;;16.03;;
14858;SDS011;7521;51.700;6.874;2023-02-13T07:15:13;20.53;;;16.57;;
14858;SDS011;7521;51.700;6.874;2023-02-13T07:18:19;23.90;;;16.90;;
14858;SDS011;7521;51.700;6.874;2023-02-13T07:21:33;24.37;;;17.30;;
14858;SDS011;7521;51.700;6.874;2023-02-13T07:24:38;22.67;;;17.27;;
14858;SDS011;7521;51.700;6.874;2023-02-13T07:27:43;20.97;;;18.00;;
14858;SDS011;7521;51.700;6.874;2023-02-13T07:30:52;26.07;;;16.80;;
14858;SDS011;7521;51.700;6.874;2023-02-13T07:33:59;22.80;;;16.40;;
14858;SDS011;7521;51.700;6.874;2023-02-13T07:37:07;22.13;;;15.60;;
14858;SDS011;7521;51.700;6.874;2023-02-13T07:40:13;21.20;;;14.77;;
14858;SDS011;7521;51.700;6.874;2023-02-13T07:43:18;21.27;;;14.60;;
14858;SDS011;7521;51.700;6.874;2023-02-13T07:46:23;21.50;;;15.47;;
14858;SDS011;7521;51.700;6.874;2023-02-13T07:49:28;22.02;;;15.02;;
14858;SDS011;7521;51.700;6.874;2023-02-13T07:52:33;21.57;;;16.07;;
14858;SDS011;7521;51.700;6.874;2023-02-13T07:55:41;20.63;;;14.57;;
14858;SDS011;7521;51.700;6.874;2023-02-13T07:58:46;24.23;;;15.33;;
14858;SDS011;7521;51.700;6.874;2023-02-13T08:01:51;19.53;;;14.03;;
14858;SDS011;7521;51.700;6.874;2023-02-13T08:04:56;20.42;;;13.68;;
14858;SDS011;7521;51.700;6.874;2023-02-13T08:08:02;17.00;;;12.82;;
14858;SDS011;7521;51.700;6.874;2023-02-13T08:11:09;15.93;;;11.60;;
14858;SDS011;7521;51.700;6.874;2023-02-13T08:14:35;18.53;;;12.50;;
14858;SDS011;7521;51.700;6.874;2023-02-13T08:17:40;16.52;;;12.55;;
14858;SDS011;7521;51.700;6.874;2023-02-13T08:20:45;13.38;;;10.27;;
14858;SDS011;7521;51.700;6.874;2023-02-13T08:23:50;14.27;;;11.63;;
14858;SDS011;7521;51.700;6.874;2023-02-13T08:26:55;15.83;;;11.80;;
14858;SDS011;7521;51.700;6.874;2023-02-13T08:30:01;14.95;;;10.85;;
14858;SDS011;7521;51.700;6.874;2023-02-13T08:33:07;15.23;;;10.73;;
14858;SDS011;7521;51.700;6.874;2023-02-13T08:36:12;13.82;;;10.55;;
14858;SDS011;7521;51.700;6.874;2023-02-13T08:39:17;13.88;;;10.52;;
14858;SDS011;7521;51.700;6.874;2023-02-13T08:42:22;13.18;;;9.55;;
14858;SDS011;7521;51.700;6.874;2023-02-13T08:45:27;12.45;;;10.05;;
14858;SDS011;7521;51.700;6.874;2023-02-13T08:48:33;12.70;;;9.53;;
14858;SDS011;7521;51.700;6.874;2023-02-13T08:51:41;14.17;;;9.53;;
14858;SDS011;7521;51.700;6.874;2023-02-13T08:54:46;13.60;;;10.20;;
14858;SDS011;7521;51.700;6.874;2023-02-13T08:58:00;12.37;;;9.70;;
14858;SDS011;7521;51.700;6.874;2023-02-13T09:01:06;15.37;;;10.63;;
14858;SDS011;7521;51.700;6.874;2023-02-13T09:04:13;15.60;;;10.40;;
14858;SDS011;7521;51.700;6.874;2023-02-13T09:07:20;13.87;;;9.70;;
14858;SDS011;7521;51.700;6.874;2023-02-13T09:10:25;13.63;;;9.90;;
14858;SDS011;7521;51.700;6.874;2023-02-13T09:13:32;15.07;;;10.23;;
14858;SDS011;7521;51.700;6.874;2023-02-13T09:16:41;13.53;;;9.67;;
14858;SDS011;7521;51.700;6.874;2023-02-13T09:19:46;13.47;;;10.17;;
14858;SDS011;7521;51.700;6.874;2023-02-13T09:22:51;11.90;;;9.27;;
14858;SDS011;7521;51.700;6.874;2023-02-13T09:25:59;16.10;;;11.23;;
14858;SDS011;7521;51.700;6.874;2023-02-13T09:29:05;13.10;;;9.97;;
14858;SDS011;7521;51.700;6.874;2023-02-13T09:32:12;16.40;;;10.93;;
14858;SDS011;7521;51.700;6.874;2023-02-13T09:35:18;13.90;;;9.93;;
14858;SDS011;7521;51.700;6.874;2023-02-13T09:38:23;15.37;;;11.00;;
14858;SDS011;7521;51.700;6.874;2023-02-13T09:41:33;15.87;;;10.37;;
14858;SDS011;7521;51.700;6.874;2023-02-13T09:44:41;14.97;;;10.33;;
14858;SDS011;7521;51.700;6.874;2023-02-13T09:47:47;14.10;;;10.57;;
14858;SDS011;7521;51.700;6.874;2023-02-13T09:50:57;14.27;;;10.77;;
14858;SDS011;7521;51.700;6.874;2023-02-13T09:54:04;17.13;;;10.20;;
14858;SDS011;7521;51.700;6.874;2023-02-13T09:57:16;14.27;;;10.80;;
14858;SDS011;7521;51.700;6.874;2023-02-13T10:06:45;14.43;;;10.20;;
14858;SDS011;7521;51.700;6.874;2023-02-13T10:09:59;12.43;;;9.03;;
14858;SDS011;7521;51.700;6.874;2023-02-13T10:13:10;16.10;;;9.87;;
14858;SDS011;7521;51.700;6.874;2023-02-13T10:16:40;14.00;;;9.80;;
14858;SDS011;7521;51.700;6.874;2023-02-13T10:19:52;15.90;;;9.80;;
14858;SDS011;7521;51.700;6.874;2023-02-13T10:23:15;12.87;;;9.60;;
14858;SDS011;7521;51.700;6.874;2023-02-13T10:26:26;16.17;;;10.13;;
14858;SDS011;7521;51.700;6.874;2023-02-13T10:33:29;14.97;;;9.40;;
14858;SDS011;7521;51.700;6.874;2023-02-13T10:36:39;15.10;;;9.50;;
14858;SDS011;7521;51.700;6.874;2023-02-13T10:39:47;13.03;;;10.00;;
14858;SDS011;7521;51.700;6.874;2023-02-13T10:43:07;12.33;;;9.47;;
14858;SDS011;7521;51.700;6.874;2023-02-13T10:49:29;12.65;;;9.60;;
14858;SDS011;7521;51.700;6.874;2023-02-13T10:55:50;12.13;;;8.77;;
14858;SDS011;7521;51.700;6.874;2023-02-13T11:02:22;12.63;;;8.93;;
14858;SDS011;7521;51.700;6.874;2023-02-13T11:05:32;11.53;;;9.17;;
14858;SDS011;7521;51.700;6.874;2023-02-13T11:08:38;13.13;;;9.60;;
14858;SDS011;7521;51.700;6.874;2023-02-13T11:11:44;11.77;;;8.10;;
14858;SDS011;7521;51.700;6.874;2023-02-13T11:14:53;12.00;;;9.37;;
14858;SDS011;7521;51.700;6.874;2023-02-13T11:18:03;13.43;;;9.07;;
14858;SDS011;7521;51.700;6.874;2023-02-13T11:21:18;11.47;;;8.70;;
14858;SDS011;7521;51.700;6.874;2023-02-13T11:24:25;13.13;;;9.43;;
14858;SDS011;7521;51.700;6.874;2023-02-13T11:27:35;12.13;;;8.70;;
14858;SDS011;7521;51.700;6.874;2023-02-13T11:30:40;12.47;;;8.87;;
14858;SDS011;7521;51.700;6.874;2023-02-13T11:33:46;9.90;;;8.20;;
14858;SDS011;7521;51.700;6.874;2023-02-13T11:37:08;13.13;;;9.23;;
14858;SDS011;7521;51.700;6.874;2023-02-13T11:40:27;10.40;;;8.40;;
14858;SDS011;7521;51.700;6.874;2023-02-13T11:43:34;11.03;;;8.47;;
14858;SDS011;7521;51.700;6.874;2023-02-13T11:46:45;12.40;;;9.00;;
14858;SDS011;7521;51.700;6.874;2023-02-13T11:49:51;12.10;;;9.00;;
14858;SDS011;7521;51.700;6.874;2023-02-13T11:56:14;13.33;;;9.53;;
14858;SDS011;7521;51.700;6.874;2023-02-13T11:59:23;11.17;;;8.53;;
14858;SDS011;7521;51.700;6.874;2023-02-13T12:02:29;13.70;;;9.57;;
14858;SDS011;7521;51.700;6.874;2023-02-13T12:05:35;11.67;;;8.80;;
14858;SDS011;7521;51.700;6.874;2023-02-13T12:08:44;14.40;;;9.23;;
14858;SDS011;7521;51.700;6.874;2023-02-13T12:11:51;11.07;;;8.77;;
14858;SDS011;7521;51.700;6.874;2023-02-13T12:14:56;11.50;;;8.80;;
14858;SDS011;7521;51.700;6.874;2023-02-13T12:40:30;15.53;;;9.37;;
14858;SDS011;7521;51.700;6.874;2023-02-13T12:47:14;14.77;;;9.00;;
14858;SDS011;7521;51.700;6.874;2023-02-13T13:00:19;12.43;;;8.93;;
14858;SDS011;7521;51.700;6.874;2023-02-13T13:06:48;11.90;;;9.23;;
14858;SDS011;7521;51.700;6.874;2023-02-13T13:22:33;15.70;;;8.80;;
14858;SDS011;7521;51.700;6.874;2023-02-13T13:25:45;11.33;;;9.03;;
14858;SDS011;7521;51.700;6.874;2023-02-13T13:28:53;12.87;;;8.40;;
14858;SDS011;7521;51.700;6.874;2023-02-13T13:32:04;10.73;;;8.67;;
14858;SDS011;7521;51.700;6.874;2023-02-13T13:35:16;14.30;;;9.37;;
14858;SDS011;7521;51.700;6.874;2023-02-13T13:38:32;11.83;;;8.90;;
14858;SDS011;7521;51.700;6.874;2023-02-13T13:41:46;12.10;;;9.03;;
14858;SDS011;7521;51.700;6.874;2023-02-13T13:51:25;13.63;;;9.27;;
14858;SDS011;7521;51.700;6.874;2023-02-13T13:54:33;13.07;;;9.37;;
14858;SDS011;7521;51.700;6.874;2023-02-13T14:00:44;14.95;;;9.55;;
14858;SDS011;7521;51.700;6.874;2023-02-13T14:03:57;11.02;;;8.90;;
14858;SDS011;7521;51.700;6.874;2023-02-13T14:10:50;10.77;;;8.80;;
14858;SDS011;7521;51.700;6.874;2023-02-13T14:13:39;16.70;;;10.13;;
14858;SDS011;7521;51.700;6.874;2023-02-13T14:16:44;11.80;;;9.60;;
14858;SDS011;7521;51.700;6.874;2023-02-13T14:19:50;12.33;;;9.60;;
14858;SDS011;7521;51.700;6.874;2023-02-13T14:23:04;13.10;;;10.23;;
14858;SDS011;7521;51.700;6.874;2023-02-13T14:26:24;16.10;;;11.07;;
14858;SDS011;7521;51.700;6.874;2023-02-13T14:29:32;26.97;;;20.57;;
14858;SDS011;7521;51.700;6.874;2023-02-13T14:32:38;13.13;;;10.10;;
14858;SDS011;7521;51.700;6.874;2023-02-13T14:35:47;12.67;;;9.40;;
14858;SDS011;7521;51.700;6.874;2023-02-13T14:42:24;12.73;;;10.03;;
14858;SDS011;7521;51.700;6.874;2023-02-13T14:45:31;14.00;;;9.30;;
14858;SDS011;7521;51.700;6.874;2023-02-13T14:48:42;11.33;;;9.13;;
14858;SDS011;7521;51.700;6.874;2023-02-13T14:58:11;13.73;;;10.83;;
14858;SDS011;7521;51.700;6.874;2023-02-13T15:04:38;13.13;;;10.80;;
14858;SDS011;7521;51.700;6.874;2023-02-13T15:07:46;18.47;;;11.30;;
14858;SDS011;7521;51.700;6.874;2023-02-13T15:10:54;11.53;;;9.93;;
14858;SDS011;7521;51.700;6.874;2023-02-13T15:14:13;10.63;;;8.10;;
14858;SDS011;7521;51.700;6.874;2023-02-13T15:17:20;11.30;;;8.63;;
14858;SDS011;7521;51.700;6.874;2023-02-13T15:20:29;11.20;;;9.33;;
14858;SDS011;7521;51.700;6.874;2023-02-13T15:23:36;11.07;;;8.63;;
14858;SDS011;7521;51.700;6.874;2023-02-13T15:26:42;10.97;;;9.00;;
14858;SDS011;7521;51.700;6.874;2023-02-13T15:30:00;10.47;;;9.20;;
14858;SDS011;7521;51.700;6.874;2023-02-13T15:33:15;11.80;;;9.13;;
14858;SDS011;7521;51.700;6.874;2023-02-13T15:36:22;11.23;;;9.50;;
14858;SDS011;7521;51.700;6.874;2023-02-13T15:39:30;13.67;;;9.80;;
14858;SDS011;7521;51.700;6.874;2023-02-13T15:42:38;13.63;;;9.70;;
14858;SDS011;7521;51.700;6.874;2023-02-13T15:45:43;11.13;;;9.10;;
14858;SDS011;7521;51.700;6.874;2023-02-13T15:48:48;11.60;;;8.95;;
14858;SDS011;7521;51.700;6.874;2023-02-13T15:52:00;13.77;;;8.70;;
14858;SDS011;7521;51.700;6.874;2023-02-13T15:55:16;11.73;;;8.67;;
14858;SDS011;7521;51.700;6.874;2023-02-13T15:58:21;12.20;;;9.23;;
14858;SDS011;7521;51.700;6.874;2023-02-13T16:01:29;11.47;;;8.30;;
14858;SDS011;7521;51.700;6.874;2023-02-13T16:04:35;12.40;;;9.63;;
14858;SDS011;7521;51.700;6.874;2023-02-13T16:07:54;11.63;;;8.53;;
14858;SDS011;7521;51.700;6.874;2023-02-13T16:14:23;10.40;;;8.57;;
14858;SDS011;7521;51.700;6.874;2023-02-13T16:17:32;10.47;;;8.00;;
14858;SDS011;7521;51.700;6.874;2023-02-13T16:20:38;9.30;;;8.07;;
14858;SDS011;7521;51.700;6.874;2023-02-13T16:23:44;10.00;;;8.40;;
14858;SDS011;7521;51.700;6.874;2023-02-13T16:26:49;12.55;;;8.23;;
14858;SDS011;7521;51.700;6.874;2023-02-13T16:29:58;12.90;;;8.70;;
14858;SDS011;7521;51.700;6.874;2023-02-13T16:33:23;11.67;;;9.47;;
14858;SDS011;7521;51.700;6.874;2023-02-13T16:36:30;13.43;;;9.40;;
14858;SDS011;7521;51.700;6.874;2023-02-13T16:39:38;14.30;;;10.13;;
14858;SDS011;7521;51.700;6.874;2023-02-13T16:42:43;13.38;;;9.30;;
14858;SDS011;7521;51.700;6.874;2023-02-13T16:45:48;11.52;;;8.75;;
14858;SDS011;7521;51.700;6.874;2023-02-13T16:52:17;10.20;;;7.80;;
14858;SDS011;7521;51.700;6.874;2023-02-13T16:55:24;9.30;;;7.23;;
14858;SDS011;7521;51.700;6.874;2023-02-13T16:58:29;9.52;;;7.50;;
14858;SDS011;7521;51.700;6.874;2023-02-13T17:01:35;10.80;;;8.27;;
14858;SDS011;7521;51.700;6.874;2023-02-13T17:04:45;17.87;;;14.37;;
14858;SDS011;7521;51.700;6.874;2023-02-13T17:07:51;10.17;;;8.20;;
14858;SDS011;7521;51.700;6.874;2023-02-13T17:11:00;9.33;;;8.27;;
14858;SDS011;7521;51.700;6.874;2023-02-13T17:14:07;9.97;;;7.70;;
14858;SDS011;7521;51.700;6.874;2023-02-13T17:17:13;10.33;;;8.23;;
14858;SDS011;7521;51.700;6.874;2023-02-13T17:20:26;10.67;;;8.57;;
14858;SDS011;7521;51.700;6.874;2023-02-13T17:23:31;10.77;;;7.90;;
14858;SDS011;7521;51.700;6.874;2023-02-13T17:26:36;18.33;;;15.15;;
14858;SDS011;7521;51.700;6.874;2023-02-13T17:29:41;14.30;;;11.73;;
14858;SDS011;7521;51.700;6.874;2023-02-13T17:32:47;15.70;;;10.80;;
14858;SDS011;7521;51.700;6.874;2023-02-13T17:35:53;14.20;;;9.83;;
14858;SDS011;7521;51.700;6.874;2023-02-13T17:38:58;12.17;;;9.23;;
14858;SDS011;7521;51.700;6.874;2023-02-13T17:42:03;12.53;;;9.67;;
14858;SDS011;7521;51.700;6.874;2023-02-13T17:45:09;11.93;;;9.97;;
14858;SDS011;7521;51.700;6.874;2023-02-13T17:48:14;13.27;;;9.50;;
14858;SDS011;7521;51.700;6.874;2023-02-13T17:51:19;12.90;;;8.77;;
14858;SDS011;7521;51.700;6.874;2023-02-13T17:54:25;11.83;;;9.50;;
14858;SDS011;7521;51.700;6.874;2023-02-13T17:57:31;10.50;;;9.27;;
14858;SDS011;7521;51.700;6.874;2023-02-13T18:00:36;11.68;;;9.02;;
14858;SDS011;7521;51.700;6.874;2023-02-13T18:03:41;13.53;;;9.90;;
14858;SDS011;7521;51.700;6.874;2023-02-13T18:06:49;11.48;;;8.85;;
14858;SDS011;7521;51.700;6.874;2023-02-13T18:09:54;12.77;;;9.37;;
14858;SDS011;7521;51.700;6.874;2023-02-13T18:13:00;12.60;;;8.75;;
14858;SDS011;7521;51.700;6.874;2023-02-13T18:16:08;11.10;;;8.43;;
14858;SDS011;7521;51.700;6.874;2023-02-13T18:19:13;12.73;;;9.23;;
14858;SDS011;7521;51.700;6.874;2023-02-13T18:22:19;12.17;;;9.87;;
14858;SDS011;7521;51.700;6.874;2023-02-13T18:25:24;11.88;;;9.85;;
14858;SDS011;7521;51.700;6.874;2023-02-13T18:28:29;12.13;;;10.13;;
14858;SDS011;7521;51.700;6.874;2023-02-13T18:31:34;12.60;;;10.55;;
14858;SDS011;7521;51.700;6.874;2023-02-13T18:34:39;13.93;;;11.40;;
14858;SDS011;7521;51.700;6.874;2023-02-13T18:37:45;14.68;;;11.10;;
14858;SDS011;7521;51.700;6.874;2023-02-13T18:40:50;13.93;;;11.63;;
14858;SDS011;7521;51.700;6.874;2023-02-13T18:43:55;13.93;;;11.33;;
14858;SDS011;7521;51.700;6.874;2023-02-13T18:47:01;17.50;;;13.57;;
14858;SDS011;7521;51.700;6.874;2023-02-13T18:50:07;13.63;;;11.43;;
14858;SDS011;7521;51.700;6.874;2023-02-13T18:53:12;18.27;;;11.27;;
14858;SDS011;7521;51.700;6.874;2023-02-13T18:56:17;15.13;;;12.20;;
14858;SDS011;7521;51.700;6.874;2023-02-13T18:59:24;15.47;;;12.30;;
14858;SDS011;7521;51.700;6.874;2023-02-13T19:02:29;14.40;;;11.33;;
14858;SDS011;7521;51.700;6.874;2023-02-13T19:05:38;16.63;;;14.17;;
14858;SDS011;7521;51.700;6.874;2023-02-13T19:08:44;19.53;;;15.20;;
14858;SDS011;7521;51.700;6.874;2023-02-13T19:11:49;19.63;;;14.50;;
14858;SDS011;7521;51.700;6.874;2023-02-13T19:14:55;18.03;;;14.47;;
14858;SDS011;7521;51.700;6.874;2023-02-13T19:18:00;19.73;;;14.57;;
14858;SDS011;7521;51.700;6.874;2023-02-13T19:21:06;18.80;;;15.17;;
14858;SDS011;7521;51.700;6.874;2023-02-13T19:24:11;21.87;;;15.40;;
14858;SDS011;7521;51.700;6.874;2023-02-13T19:27:19;18.43;;;14.87;;
14858;SDS011;7521;51.700;6.874;2023-02-13T19:30:24;23.33;;;18.43;;
14858;SDS011;7521;51.700;6.874;2023-02-13T19:33:29;21.90;;;17.83;;
14858;SDS011;7521;51.700;6.874;2023-02-13T19:36:34;29.17;;;21.37;;
14858;SDS011;7521;51.700;6.874;2023-02-13T19:39:40;21.25;;;16.40;;
14858;SDS011;7521;51.700;6.874;2023-02-13T19:42:45;20.33;;;16.80;;
14858;SDS011;7521;51.700;6.874;2023-02-13T19:45:50;20.98;;;16.38;;
14858;SDS011;7521;51.700;6.874;2023-02-13T19:48:55;20.17;;;15.80;;
14858;SDS011;7521;51.700;6.874;2023-02-13T19:52:00;23.20;;;16.43;;
14858;SDS011;7521;51.700;6.874;2023-02-13T19:55:07;24.93;;;17.93;;
14858;SDS011;7521;51.700;6.874;2023-02-13T19:58:13;24.77;;;18.20;;
14858;SDS011;7521;51.700;6.874;2023-02-13T20:01:19;20.93;;;16.30;;
14858;SDS011;7521;51.700;6.874;2023-02-13T20:04:25;19.47;;;15.10;;
14858;SDS011;7521;51.700;6.874;2023-02-13T20:07:31;18.77;;;14.60;;
14858;SDS011;7521;51.700;6.874;2023-02-13T20:10:36;16.80;;;13.87;;
14858;SDS011;7521;51.700;6.874;2023-02-13T20:13:41;17.40;;;14.27;;
14858;SDS011;7521;51.700;6.874;2023-02-13T20:16:47;16.97;;;13.40;;
14858;SDS011;7521;51.700;6.874;2023-02-13T20:19:52;19.33;;;13.00;;
14858;SDS011;7521;51.700;6.874;2023-02-13T20:22:58;16.03;;;12.73;;
14858;SDS011;7521;51.700;6.874;2023-02-13T20:26:03;18.63;;;13.50;;
14858;SDS011;7521;51.700;6.874;2023-02-13T20:29:09;19.23;;;13.23;;
14858;SDS011;7521;51.700;6.874;2023-02-13T20:32:20;16.50;;;13.80;;
14858;SDS011;7521;51.700;6.874;2023-02-13T20:35:25;16.53;;;13.17;;
14858;SDS011;7521;51.700;6.874;2023-02-13T20:38:31;19.42;;;14.27;;
14858;SDS011;7521;51.700;6.874;2023-02-13T20:41:45;20.33;;;14.87;;
14858;SDS011;7521;51.700;6.874;2023-02-13T20:44:54;20.23;;;13.80;;
14858;SDS011;7521;51.700;6.874;2023-02-13T20:47:59;18.03;;;13.80;;
14858;SDS011;7521;51.700;6.874;2023-02-13T20:51:06;20.40;;;15.65;;
14858;SDS011;7521;51.700;6.874;2023-02-13T20:54:30;21.83;;;16.00;;
14858;SDS011;7521;51.700;6.874;2023-02-13T20:57:35;19.20;;;14.33;;
14858;SDS011;7521;51.700;6.874;2023-02-13T21:00:40;17.23;;;14.30;;
14858;SDS011;7521;51.700;6.874;2023-02-13T21:03:46;16.73;;;14.00;;
14858;SDS011;7521;51.700;6.874;2023-02-13T21:07:04;19.00;;;14.03;;
14858;SDS011;7521;51.700;6.874;2023-02-13T21:10:13;26.13;;;17.63;;